Time;durP1;ratioP1;P1;durP2;ratioP2;P2;SDS_P1;SDS_P2;PMS_P1;PMS_P2;Temp;Humidity;BMP_temperature;BMP_pressure;BME280_temperature;BME280_humidity;BME280_pressure;Samples;Min_cycle;Max_cycle;Signal;HPM_P1;HPM_P2
2023/01/08 00:00:29;;;;;;;;;;;;;;;11.94;73.93;99457.84;5075090;28;19931;-59
2023/01/08 00:02:54;;;;;;;;;;;;;;;11.97;73.76;99467.50;5093403;28;19971;-59
2023/01/08 00:05:19;;;;;;;;;;;;;;;11.99;74.39;99468.31;5093278;28;19952;-59
2023/01/08 00:07:45;;;;;;;;;;;;;;;12.01;75.02;99462.91;5081740;28;19931;-59
2023/01/08 00:10:10;;;;;;;;;;;;;;;12.00;74.20;99456.69;5073225;28;19929;-59
2023/01/08 00:12:35;;;;;;;;;;;;;;;12.03;73.78;99464.53;5075447;28;20382;-59
2023/01/08 00:15:01;;;;;;;;;;;;;;;12.02;72.75;99454.84;5073593;28;19951;-58
2023/01/08 00:17:26;;;;;;;;;;;;;;;12.08;73.37;99454.53;5073193;28;20399;-59
2023/01/08 00:19:51;;;;;;;;;;;;;;;12.08;72.77;99449.19;5075016;28;19933;-59
2023/01/08 00:22:16;;;;;;;;;;;;;;;12.13;73.15;99444.50;5073025;28;19936;-59
2023/01/08 00:24:42;;;;;;;;;;;;;;;12.10;73.39;99436.66;5088540;28;19954;-59
2023/01/08 00:27:07;;;;;;;;;;;;;;;12.10;71.56;99436.66;5095488;28;19959;-59
2023/01/08 00:29:32;;;;;;;;;;;;;;;12.19;70.86;99446.03;5093752;28;20456;-58
2023/01/08 00:31:57;;;;;;;;;;;;;;;12.25;71.67;99443.94;5093059;28;19912;-59
2023/01/08 00:34:23;;;;;;;;;;;;;;;12.27;71.29;99441.19;5085851;28;19996;-59
2023/01/08 00:36:48;;;;;;;;;;;;;;;12.26;71.83;99432.31;5077129;28;19973;-59
2023/01/08 00:39:13;;;;;;;;;;;;;;;12.27;71.76;99427.84;5072726;28;20386;-59
2023/01/08 00:41:42;;;;;;;;;;;;;;;12.26;71.76;99429.66;5074853;28;19937;-59
2023/01/08 00:44:08;;;;;;;;;;;;;;;12.25;71.83;99427.94;5089322;28;19931;-59
2023/01/08 00:46:33;;;;;;;;;;;;;;;12.19;72.06;99422.88;5092687;28;19927;-59
2023/01/08 00:48:58;;;;;;;;;;;;;;;12.12;72.89;99433.94;5087997;28;19931;-59
2023/01/08 00:51:25;;;;;;;;;;;;;;;12.05;73.45;99428.03;5072971;28;19926;-58
2023/01/08 00:53:50;;;;;;;;;;;;;;;11.98;73.53;99439.91;5077479;28;19960;-59
2023/01/08 00:56:15;;;;;;;;;;;;;;;11.93;72.69;99431.25;5072535;28;19974;-59
2023/01/08 00:58:40;;;;;;;;;;;;;;;11.90;73.31;99434.06;5073339;28;19947;-59
2023/01/08 01:01:11;;;;;;;;;;;;;;;11.84;73.73;99429.03;5094411;28;19971;-59
2023/01/08 01:03:36;;;;;;;;;;;;;;;11.80;73.11;99433.66;5092508;28;19923;-58
2023/01/08 01:06:02;;;;;;;;;;;;;;;11.74;74.02;99422.41;5078745;28;20552;-59
2023/01/08 01:08:28;;;;;;;;;;;;;;;11.69;75.45;99413.78;5072334;28;19934;-59
2023/01/08 01:10:53;;;;;;;;;;;;;;;11.64;75.64;99410.47;5085951;28;19938;-59
2023/01/08 01:13:18;;;;;;;;;;;;;;;11.60;76.78;99416.81;5074861;28;19945;-59
2023/01/08 01:15:44;;;;;;;;;;;;;;;11.58;77.41;99410.72;5072579;28;19982;-59
2023/01/08 01:18:09;;;;;;;;;;;;;;;11.56;76.51;99415.25;5074494;28;19940;-58
2023/01/08 01:20:35;;;;;;;;;;;;;;;11.59;76.96;99417.75;5072503;28;20441;-59
2023/01/08 01:23:00;;;;;;;;;;;;;;;11.62;76.71;99407.84;5076091;28;19912;-59
2023/01/08 01:25:25;;;;;;;;;;;;;;;11.58;76.90;99405.38;5075315;28;19952;-58
2023/01/08 01:27:50;;;;;;;;;;;;;;;11.64;76.19;99405.13;5072266;28;19980;-59
2023/01/08 01:30:16;;;;;;;;;;;;;;;11.66;77.55;99403.25;5084706;28;19929;-59
2023/01/08 01:32:41;;;;;;;;;;;;;;;11.69;76.88;99403.13;5083299;28;20352;-59
2023/01/08 01:35:06;;;;;;;;;;;;;;;11.70;78.99;99405.72;5072459;28;19927;-59
2023/01/08 01:37:32;;;;;;;;;;;;;;;11.70;78.89;99400.38;5073832;28;20402;-59
2023/01/08 01:39:57;;;;;;;;;;;;;;;11.69;80.09;99398.66;5072709;28;19995;-59
2023/01/08 01:42:42;;;;;;;;;;;;;;;11.66;80.78;99392.59;5072607;28;19938;-59
2023/01/08 01:45:13;;;;;;;;;;;;;;;11.61;81.83;99394.59;5074475;28;19927;-58
2023/01/08 01:47:39;;;;;;;;;;;;;;;11.56;83.49;99391.28;5074558;28;19958;-59
2023/01/08 01:50:11;;;;;;;;;;;;;;;11.50;83.96;99388.88;5074401;28;20047;-58
2023/01/08 01:52:50;;;;;;;;;;;;;;;11.45;84.05;99383.75;5074759;28;19931;-58
2023/01/08 01:55:16;;;;;;;;;;;;;;;11.44;84.59;99375.84;5092208;28;19938;-59
2023/01/08 01:57:44;;;;;;;;;;;;;;;11.41;84.21;99368.00;5091898;28;20286;-58
2023/01/08 02:03:15;;;;;;;;;;;;;;;11.44;83.08;99363.41;5075030;28;19983;-59
2023/01/08 02:06:02;;;;;;;;;;;;;;;11.49;82.51;99365.84;5092189;28;20431;-59
2023/01/08 02:08:41;;;;;;;;;;;;;;;11.53;82.79;99365.63;5089978;28;20003;-59
2023/01/08 02:11:10;;;;;;;;;;;;;;;11.55;81.57;99362.88;5092198;28;19913;-59
2023/01/08 02:13:37;;;;;;;;;;;;;;;11.58;82.09;99368.09;5090273;28;19998;-59
2023/01/08 02:16:27;;;;;;;;;;;;;;;11.62;80.96;99361.69;5095537;28;20030;-59
2023/01/08 02:18:56;;;;;;;;;;;;;;;11.64;81.45;99357.19;5082563;28;19938;-59
2023/01/08 02:21:21;;;;;;;;;;;;;;;11.64;80.72;99351.84;5074579;28;20402;-59
2023/01/08 02:23:59;;;;;;;;;;;;;;;11.61;79.79;99362.63;5081137;28;19996;-59
2023/01/08 02:26:31;;;;;;;;;;;;;;;11.64;80.84;99362.50;5096090;28;19959;-59
2023/01/08 02:28:58;;;;;;;;;;;;;;;11.60;80.62;99347.56;5094610;28;20010;-59
2023/01/08 02:31:25;;;;;;;;;;;;;;;11.57;81.50;99345.03;5078019;28;19966;-59
2023/01/08 02:33:50;;;;;;;;;;;;;;;11.63;81.14;99350.09;5085858;28;19946;-59
2023/01/08 02:36:21;;;;;;;;;;;;;;;11.62;81.71;99340.38;5088252;28;19929;-59
2023/01/08 02:38:52;;;;;;;;;;;;;;;11.60;81.66;99334.25;5075234;28;19960;-59
2023/01/08 02:41:19;;;;;;;;;;;;;;;11.61;82.20;99338.66;5075281;28;19935;-59
2023/01/08 02:43:47;;;;;;;;;;;;;;;11.60;81.63;99321.78;5077128;28;19990;-59
2023/01/08 02:46:16;;;;;;;;;;;;;;;11.61;81.90;99336.00;5075101;28;19913;-59
2023/01/08 02:48:44;;;;;;;;;;;;;;;11.59;81.80;99316.53;5084560;28;20378;-58
2023/01/08 02:51:18;;;;;;;;;;;;;;;11.54;81.56;99313.25;5095287;28;20395;-59
2023/01/08 02:53:45;;;;;;;;;;;;;;;11.54;81.81;99303.47;5094615;28;19959;-59
2023/01/08 02:56:13;;;;;;;;;;;;;;;11.58;82.07;99301.50;5074749;28;19929;-58
2023/01/08 02:58:39;;;;;;;;;;;;;;;11.58;81.55;99299.69;5075073;28;19934;-59
2023/01/08 03:01:07;;;;;;;;;;;;;;;11.58;82.02;99305.03;5077289;28;20007;-59
2023/01/08 03:03:33;;;;;;;;;;;;;;;11.59;82.02;99297.91;5081016;28;19939;-59
2023/01/08 03:06:01;;;;;;;;;;;;;;;11.61;82.69;99301.38;5099052;28;19948;-58
2023/01/08 03:08:27;;;;;;;;;;;;;;;11.61;82.46;99309.34;5091480;28;19937;-58
2023/01/08 03:10:59;;;;;;;;;;;;;;;11.61;82.13;99304.03;5094936;28;20649;-59
2023/01/08 03:13:33;;;;;;;;;;;;;;;11.62;82.32;99305.75;5094407;28;20013;-59
2023/01/08 03:16:01;;;;;;;;;;;;;;;11.60;81.58;99302.28;5090384;28;19970;-59
2023/01/08 03:18:30;;;;;;;;;;;;;;;11.61;80.28;99296.88;5094575;28;19931;-59
2023/01/08 03:20:55;;;;;;;;;;;;;;;11.67;79.36;99293.09;5090955;28;20311;-59
2023/01/08 03:23:21;;;;;;;;;;;;;;;11.71;80.25;99290.19;5094153;28;19953;-58
2023/01/08 03:25:47;;;;;;;;;;;;;;;11.75;79.57;99281.13;5093882;28;19992;-59
2023/01/08 03:28:23;;;;;;;;;;;;;;;11.84;77.31;99282.50;5079294;28;20640;-59
2023/01/08 03:30:50;;;;;;;;;;;;;;;11.91;76.32;99287.44;5095656;28;19937;-58
2023/01/08 03:33:16;;;;;;;;;;;;;;;11.98;74.98;99287.97;5093857;28;20301;-59
2023/01/08 03:35:44;;;;;;;;;;;;;;;12.04;74.12;99287.69;5091005;28;19923;-59
2023/01/08 03:38:13;;;;;;;;;;;;;;;12.08;74.64;99296.38;5074838;28;19944;-59
2023/01/08 03:40:42;;;;;;;;;;;;;;;12.08;73.60;99289.25;5088040;28;19958;-59
2023/01/08 03:43:08;;;;;;;;;;;;;;;12.11;74.46;99291.75;5077456;28;19916;-59
2023/01/08 03:45:36;;;;;;;;;;;;;;;12.08;75.19;99294.59;5071951;28;20268;-59
2023/01/08 03:48:02;;;;;;;;;;;;;;;12.07;74.83;99295.53;5072496;28;19912;-59
2023/01/08 03:50:30;;;;;;;;;;;;;;;12.12;74.71;99300.63;5072654;28;20323;-59
2023/01/08 03:52:55;;;;;;;;;;;;;;;12.08;75.89;99301.72;5077977;28;19965;-59
2023/01/08 03:55:20;;;;;;;;;;;;;;;12.06;76.44;99307.13;5093557;28;19932;-59
2023/01/08 03:57:45;;;;;;;;;;;;;;;12.00;77.44;99312.75;5076122;28;19933;-59
2023/01/08 04:00:11;;;;;;;;;;;;;;;11.92;77.85;99306.97;5073599;28;19936;-59
2023/01/08 04:02:36;;;;;;;;;;;;;;;11.87;78.97;99314.31;5073731;28;20312;-59
2023/01/08 04:05:02;;;;;;;;;;;;;;;11.82;80.31;99298.56;5073237;28;19927;-59
2023/01/08 04:07:27;;;;;;;;;;;;;;;11.75;81.38;99313.09;5058401;28;20304;-58
2023/01/08 04:09:52;;;;;;;;;;;;;;;11.70;81.70;99311.59;5053349;28;20360;-59
2023/01/08 04:12:17;;;;;;;;;;;;;;;11.64;82.65;99304.78;5055558;28;19930;-59
2023/01/08 04:14:43;;;;;;;;;;;;;;;11.63;83.56;99313.69;5057525;28;19943;-59
2023/01/08 04:17:11;;;;;;;;;;;;;;;11.61;83.54;99320.00;5072574;28;19927;-59
2023/01/08 04:19:37;;;;;;;;;;;;;;;11.55;84.70;99321.16;5055826;28;20391;-59
2023/01/08 04:22:02;;;;;;;;;;;;;;;11.55;85.33;99321.16;5056048;28;19932;-59
2023/01/08 04:24:28;;;;;;;;;;;;;;;11.51;85.94;99324.03;5059764;28;19943;-59
2023/01/08 04:26:53;;;;;;;;;;;;;;;11.48;87.47;99324.19;5053106;28;20025;-59
2023/01/08 04:29:18;;;;;;;;;;;;;;;11.44;87.85;99317.28;5052708;28;20386;-59
2023/01/08 04:31:43;;;;;;;;;;;;;;;11.37;89.67;99329.13;5061575;28;19967;-59
2023/01/08 04:34:09;;;;;;;;;;;;;;;11.32;90.56;99323.16;5091446;28;19930;-58
2023/01/08 04:36:34;;;;;;;;;;;;;;;11.29;91.59;99320.66;5071562;28;19996;-59
2023/01/08 04:38:59;;;;;;;;;;;;;;;11.24;93.07;99325.31;5053474;28;19943;-59
2023/01/08 04:41:25;;;;;;;;;;;;;;;11.15;93.89;99321.28;5053968;28;20021;-59
2023/01/08 04:43:50;;;;;;;;;;;;;;;11.09;94.59;99318.91;5071464;28;19944;-59
2023/01/08 04:46:15;;;;;;;;;;;;;;;11.09;95.32;99320.69;5073265;28;19946;-59
2023/01/08 04:48:40;;;;;;;;;;;;;;;11.04;96.17;99328.03;5073051;28;19923;-59
2023/01/08 04:51:06;;;;;;;;;;;;;;;10.99;98.08;99328.22;5069331;28;19937;-59
2023/01/08 04:53:33;;;;;;;;;;;;;;;10.95;97.79;99333.78;5066737;28;20051;-59
2023/01/08 04:56:05;;;;;;;;;;;;;;;10.92;98.67;99320.63;5092386;28;19926;-59
2023/01/08 04:58:31;;;;;;;;;;;;;;;10.82;99.75;99319.28;5081556;28;20021;-59
2023/01/08 05:00:57;;;;;;;;;;;;;;;10.87;99.85;99319.97;5092379;28;19978;-59
2023/01/08 05:03:22;;;;;;;;;;;;;;;10.87;100.00;99317.28;5088380;28;19960;-59
2023/01/08 05:05:47;;;;;;;;;;;;;;;10.76;100.00;99311.59;5090677;28;20364;-59
2023/01/08 05:08:12;;;;;;;;;;;;;;;10.80;100.00;99313.16;5074391;28;19984;-59
2023/01/08 05:10:38;;;;;;;;;;;;;;;10.82;100.00;99308.66;5074357;28;19939;-59
2023/01/08 05:13:03;;;;;;;;;;;;;;;10.79;100.00;99308.78;5072303;28;19924;-58
2023/01/08 05:15:28;;;;;;;;;;;;;;;10.80;100.00;99307.84;5074943;28;20364;-58
2023/01/08 05:18:00;;;;;;;;;;;;;;;10.79;100.00;99308.78;5073286;28;19934;-59
2023/01/08 05:20:25;;;;;;;;;;;;;;;10.79;100.00;99300.81;5073121;28;19927;-59
2023/01/08 05:22:51;;;;;;;;;;;;;;;10.76;100.00;99295.63;5075401;28;19933;-58
2023/01/08 05:25:16;;;;;;;;;;;;;;;10.79;100.00;99293.69;5088551;28;19948;-59
2023/01/08 05:27:41;;;;;;;;;;;;;;;10.77;100.00;99292.91;5093111;28;19926;-59
2023/01/08 05:30:07;;;;;;;;;;;;;;;10.86;100.00;99286.28;5093215;28;19924;-59
2023/01/08 05:32:32;;;;;;;;;;;;;;;10.88;100.00;99284.41;5093406;28;20013;-59
2023/01/08 05:34:57;;;;;;;;;;;;;;;10.90;100.00;99290.53;5077590;28;19954;-59
2023/01/08 05:37:22;;;;;;;;;;;;;;;10.88;100.00;99292.41;5072831;28;20360;-59
2023/01/08 05:39:48;;;;;;;;;;;;;;;10.95;100.00;99288.53;5072564;28;19994;-58
2023/01/08 05:42:13;;;;;;;;;;;;;;;10.94;100.00;99285.00;5073180;28;19942;-58
2023/01/08 05:44:38;;;;;;;;;;;;;;;10.99;100.00;99282.16;5072908;28;19968;-58
2023/01/08 05:47:03;;;;;;;;;;;;;;;10.98;100.00;99277.75;5072093;28;19938;-59
2023/01/08 05:49:29;;;;;;;;;;;;;;;10.98;100.00;99275.97;5076201;28;19968;-59
2023/01/08 05:51:54;;;;;;;;;;;;;;;11.00;100.00;99275.88;5078338;28;19923;-59
2023/01/08 05:54:19;;;;;;;;;;;;;;;11.05;100.00;99272.09;5096643;28;20007;-59
2023/01/08 05:56:44;;;;;;;;;;;;;;;11.08;100.00;99287.03;5096551;28;19939;-59
2023/01/08 05:59:11;;;;;;;;;;;;;;;11.12;100.00;99278.00;5081846;28;20405;-59
2023/01/08 06:01:36;;;;;;;;;;;;;;;11.16;100.00;99271.56;5078678;28;19938;-59
2023/01/08 06:04:01;;;;;;;;;;;;;;;11.12;100.00;99276.16;5087309;28;20021;-59
2023/01/08 06:06:26;;;;;;;;;;;;;;;11.13;100.00;99274.38;5094676;28;20322;-59
2023/01/08 06:08:52;;;;;;;;;;;;;;;11.15;100.00;99275.19;5077780;28;20025;-59
2023/01/08 06:11:17;;;;;;;;;;;;;;;11.13;100.00;99269.94;5076560;28;19932;-59
2023/01/08 06:13:42;;;;;;;;;;;;;;;11.17;100.00;99270.66;5078963;28;19930;-59
2023/01/08 06:16:08;;;;;;;;;;;;;;;11.16;100.00;99266.25;5079045;28;19942;-59
2023/01/08 06:18:34;;;;;;;;;;;;;;;11.13;100.00;99274.38;5096537;28;19964;-59
2023/01/08 06:21:00;;;;;;;;;;;;;;;11.15;100.00;99272.53;5096520;28;19948;-59
2023/01/08 06:23:25;;;;;;;;;;;;;;;11.15;100.00;99269.88;5086366;28;19932;-59
2023/01/08 06:25:54;;;;;;;;;;;;;;;11.19;100.00;99263.44;5096240;28;20311;-58
2023/01/08 06:28:20;;;;;;;;;;;;;;;11.20;100.00;99274.00;5087721;28;19930;-59
2023/01/08 06:30:45;;;;;;;;;;;;;;;11.17;100.00;99271.50;5083634;28;19922;-59
2023/01/08 06:33:10;;;;;;;;;;;;;;;11.18;100.00;99273.25;5094851;28;19954;-59
2023/01/08 06:35:36;;;;;;;;;;;;;;;11.22;100.00;99260.66;5077418;28;20326;-59
2023/01/08 06:38:01;;;;;;;;;;;;;;;11.22;100.00;99266.00;5079043;28;19932;-59
2023/01/08 06:40:26;;;;;;;;;;;;;;;11.20;100.00;99266.03;5095231;28;19927;-59
2023/01/08 06:42:51;;;;;;;;;;;;;;;11.19;100.00;99266.09;5091873;28;19938;-59
2023/01/08 06:45:17;;;;;;;;;;;;;;;11.16;100.00;99268.91;5096070;28;19946;-59
2023/01/08 06:47:42;;;;;;;;;;;;;;;11.16;100.00;99263.59;5095938;28;19922;-59
2023/01/08 06:50:07;;;;;;;;;;;;;;;11.17;100.00;99268.84;5095965;28;19985;-59
2023/01/08 06:52:33;;;;;;;;;;;;;;;11.20;100.00;99275.84;5082119;28;19986;-59
2023/01/08 06:54:58;;;;;;;;;;;;;;;11.18;100.00;99272.38;5075263;28;19981;-59
2023/01/08 06:57:23;;;;;;;;;;;;;;;11.19;100.00;99272.31;5075312;28;19963;-59
2023/01/08 06:59:48;;;;;;;;;;;;;;;11.17;100.00;99262.69;5091966;28;20283;-59
2023/01/08 07:02:14;;;;;;;;;;;;;;;11.19;100.00;99258.13;5095631;28;19950;-59
2023/01/08 07:04:40;;;;;;;;;;;;;;;11.16;100.00;99263.59;5092543;28;19953;-59
2023/01/08 07:07:05;;;;;;;;;;;;;;;11.12;100.00;99267.34;5095674;28;19933;-59
2023/01/08 07:09:32;;;;;;;;;;;;;;;11.11;100.00;99266.47;5092585;28;19927;-59
2023/01/08 07:11:57;;;;;;;;;;;;;;;11.12;100.00;99262.88;5097353;28;19993;-59
2023/01/08 07:14:22;;;;;;;;;;;;;;;11.11;100.00;99270.94;5095767;28;20008;-59
2023/01/08 07:16:47;;;;;;;;;;;;;;;11.13;100.00;99267.28;5083616;28;20008;-58
2023/01/08 07:19:13;;;;;;;;;;;;;;;11.13;100.00;99259.28;5075350;28;20025;-59
2023/01/08 07:21:38;;;;;;;;;;;;;;;11.16;100.00;99268.91;5076893;28;19929;-59
2023/01/08 07:24:04;;;;;;;;;;;;;;;11.14;100.00;99265.44;5088075;28;19953;-59
2023/01/08 07:26:29;;;;;;;;;;;;;;;11.13;100.00;99277.03;5095586;28;19950;-59
2023/01/08 07:28:54;;;;;;;;;;;;;;;11.12;100.00;99278.00;5082510;28;19996;-58
2023/01/08 07:31:19;;;;;;;;;;;;;;;11.09;100.00;99270.13;5075091;28;20029;-59
2023/01/08 07:33:45;;;;;;;;;;;;;;;11.06;100.00;99273.81;5077783;28;19971;-59
2023/01/08 07:36:10;;;;;;;;;;;;;;;11.05;100.00;99269.44;5074734;28;19924;-59
2023/01/08 07:38:35;;;;;;;;;;;;;;;11.08;100.00;99274.59;5074542;28;19982;-59
2023/01/08 07:41:00;;;;;;;;;;;;;;;11.07;100.00;99277.34;5082196;28;20462;-59
2023/01/08 07:43:28;;;;;;;;;;;;;;;11.06;100.00;99278.25;5079073;28;19940;-59
2023/01/08 07:45:54;;;;;;;;;;;;;;;11.05;100.00;99276.53;5074134;28;20045;-59
2023/01/08 07:48:19;;;;;;;;;;;;;;;11.01;100.00;99275.81;5076735;28;20014;-59
2023/01/08 07:50:44;;;;;;;;;;;;;;;11.01;100.00;99275.81;5074292;28;19925;-59
2023/01/08 07:53:11;;;;;;;;;;;;;;;11.02;100.00;99276.69;5078552;28;19949;-59
2023/01/08 07:55:36;;;;;;;;;;;;;;;11.03;100.00;99270.41;5091356;28;19978;-59
2023/01/08 07:58:05;;;;;;;;;;;;;;;11.02;100.00;99266.03;5091505;28;20011;-59
2023/01/08 08:00:31;;;;;;;;;;;;;;;10.99;100.00;99264.38;5081568;28;20035;-59
2023/01/08 08:03:00;;;;;;;;;;;;;;;11.03;100.00;99267.75;5074004;28;20008;-59
2023/01/08 08:05:26;;;;;;;;;;;;;;;11.07;100.00;99264.03;5090677;28;19969;-59
2023/01/08 08:07:51;;;;;;;;;;;;;;;11.04;100.00;99265.03;5073859;28;19929;-59
2023/01/08 08:10:16;;;;;;;;;;;;;;;11.02;100.00;99271.38;5094303;28;19930;-58
2023/01/08 08:12:43;;;;;;;;;;;;;;;11.02;100.00;99266.88;5083184;28;20409;-58
2023/01/08 08:15:08;;;;;;;;;;;;;;;11.05;100.00;99265.91;5074231;28;20408;-59
2023/01/08 08:17:34;;;;;;;;;;;;;;;11.05;100.00;99272.09;5075183;28;19936;-59
2023/01/08 08:19:59;;;;;;;;;;;;;;;11.07;100.00;99270.19;5074252;28;20277;-59
2023/01/08 08:22:25;;;;;;;;;;;;;;;11.09;100.00;99278.09;5093291;28;19932;-59
2023/01/08 08:24:50;;;;;;;;;;;;;;;11.13;100.00;99282.38;5090360;28;19952;-59
2023/01/08 08:27:15;;;;;;;;;;;;;;;11.11;100.00;99282.44;5093658;28;19980;-59
2023/01/08 08:29:41;;;;;;;;;;;;;;;11.10;100.00;99290.50;5091508;28;19954;-59
2023/01/08 08:32:06;;;;;;;;;;;;;;;11.11;100.00;99292.22;5073625;28;19936;-59
2023/01/08 08:34:32;;;;;;;;;;;;;;;11.14;100.00;99297.38;5089487;28;19935;-59
2023/01/08 08:36:57;;;;;;;;;;;;;;;11.13;100.00;99301.88;5080389;28;19932;-58
2023/01/08 08:39:22;;;;;;;;;;;;;;;11.13;100.00;99301.00;5073508;28;19928;-59
2023/01/08 08:41:47;;;;;;;;;;;;;;;11.06;100.00;99302.22;5075912;28;20032;-59
2023/01/08 08:44:13;;;;;;;;;;;;;;;11.03;100.00;99299.69;5073470;28;19928;-59
2023/01/08 08:46:38;;;;;;;;;;;;;;;11.04;100.00;99302.28;5076416;28;19956;-59
2023/01/08 08:49:03;;;;;;;;;;;;;;;11.08;100.00;99305.66;5091557;28;20020;-59
2023/01/08 08:51:29;;;;;;;;;;;;;;;11.12;100.00;99302.78;5093376;28;20042;-59
2023/01/08 08:53:54;;;;;;;;;;;;;;;11.05;100.00;99305.81;5093100;28;19963;-59
2023/01/08 08:56:19;;;;;;;;;;;;;;;11.07;100.00;99301.28;5093450;28;20087;-59
2023/01/08 08:58:44;;;;;;;;;;;;;;;11.13;100.00;99306.31;5075549;28;19941;-59
2023/01/08 09:01:10;;;;;;;;;;;;;;;11.15;100.00;99299.13;5085612;28;19928;-59
2023/01/08 09:03:35;;;;;;;;;;;;;;;11.19;100.00;99300.69;5093093;28;19936;-58
2023/01/08 09:06:00;;;;;;;;;;;;;;;11.13;100.00;99301.00;5089274;28;19948;-59
2023/01/08 09:08:26;;;;;;;;;;;;;;;11.19;100.00;99306.91;5092968;28;19950;-58
2023/01/08 09:10:51;;;;;;;;;;;;;;;11.18;100.00;99305.19;5093155;28;19926;-59
2023/01/08 09:13:17;;;;;;;;;;;;;;;11.17;100.00;99303.44;5077273;28;19941;-58
2023/01/08 09:15:42;;;;;;;;;;;;;;;11.21;100.00;99305.03;5072799;28;19924;-59
2023/01/08 09:18:07;;;;;;;;;;;;;;;11.21;100.00;99301.50;5077785;28;20368;-59
2023/01/08 09:20:32;;;;;;;;;;;;;;;11.21;100.00;99310.38;5095879;28;19932;-59
2023/01/08 09:22:58;;;;;;;;;;;;;;;11.17;100.00;99313.25;5091688;28;19928;-59
2023/01/08 09:25:23;;;;;;;;;;;;;;;11.17;100.00;99314.09;5088631;28;19956;-58
2023/01/08 09:27:57;;;;;;;;;;;;;;;11.16;100.00;99316.81;5092240;28;20017;-58
2023/01/08 09:30:22;;;;;;;;;;;;;;;11.20;100.00;99323.75;5084020;28;19931;-58
2023/01/08 09:32:47;;;;;;;;;;;;;;;11.22;100.00;99312.06;5078060;28;19937;-59
2023/01/08 09:35:12;;;;;;;;;;;;;;;11.24;100.00;99322.66;5091552;28;19931;-59
2023/01/08 09:37:38;;;;;;;;;;;;;;;11.19;100.00;99317.56;5076810;28;19958;-59
2023/01/08 09:40:03;;;;;;;;;;;;;;;11.25;100.00;99311.09;5095156;28;20014;-58
2023/01/08 09:42:30;;;;;;;;;;;;;;;11.24;100.00;99310.22;5083417;28;19940;-58
2023/01/08 09:44:55;;;;;;;;;;;;;;;11.22;100.00;99312.06;5072417;28;20297;-58
2023/01/08 09:47:24;;;;;;;;;;;;;;;11.25;100.00;99301.28;5072361;28;19929;-58
2023/01/08 09:49:51;;;;;;;;;;;;;;;11.32;100.00;99310.72;5090488;28;19951;-58
2023/01/08 09:52:17;;;;;;;;;;;;;;;11.32;100.00;99309.84;5092252;28;19925;-58
2023/01/08 09:54:42;;;;;;;;;;;;;;;11.35;100.00;99307.06;5080512;28;20351;-58
2023/01/08 09:57:15;;;;;;;;;;;;;;;11.35;100.00;99312.38;5072124;28;19931;-58
2023/01/08 09:59:41;;;;;;;;;;;;;;;11.31;100.00;99317.00;5075666;28;19936;-58
2023/01/08 10:02:14;;;;;;;;;;;;;;;11.28;100.00;99313.59;5071797;28;19935;-59
2023/01/08 10:04:39;;;;;;;;;;;;;;;11.31;100.00;99321.44;5087491;28;19993;-58
2023/01/08 10:07:10;;;;;;;;;;;;;;;11.32;100.00;99323.16;5077843;28;19977;-58
2023/01/08 10:09:35;;;;;;;;;;;;;;;11.36;100.00;99319.44;5090363;28;19981;-59
2023/01/08 10:12:02;;;;;;;;;;;;;;;11.35;100.00;99313.22;5090081;28;20408;-58
2023/01/08 10:14:29;;;;;;;;;;;;;;;11.28;100.00;99300.28;5072579;28;20005;-58
2023/01/08 10:17:14;;;;;;;;;;;;;;;11.29;100.00;99291.34;5077357;28;19981;-58
2023/01/08 10:19:40;;;;;;;;;;;;;;;11.37;100.00;99295.41;5040475;28;19939;-58
2023/01/08 10:22:13;;;;;;;;;;;;;;;11.30;100.00;99288.63;5092269;28;19931;-58
2023/01/08 10:24:38;;;;;;;;;;;;;;;11.29;100.00;99288.69;5073937;28;20445;-58
2023/01/08 10:27:13;;;;;;;;;;;;;;;11.16;100.00;99268.91;5088305;28;19936;-58
2023/01/08 10:29:39;;;;;;;;;;;;;;;11.22;100.00;99263.31;5089848;28;19968;-57
2023/01/08 10:32:10;;;;;;;;;;;;;;;11.27;100.00;99255.94;5091679;28;19981;-58
2023/01/08 10:34:41;;;;;;;;;;;;;;;11.27;100.00;99251.50;5091778;28;19948;-58
2023/01/08 10:37:25;;;;;;;;;;;;;;;11.37;100.00;99250.13;5095877;28;19933;-58
2023/01/08 10:39:51;;;;;;;;;;;;;;;11.50;100.00;99242.41;5095064;28;20070;-58
2023/01/08 10:42:17;;;;;;;;;;;;;;;11.50;100.00;99243.28;5095717;28;19985;-58
2023/01/08 10:44:53;;;;;;;;;;;;;;;11.57;100.00;99239.38;5092833;28;19940;-57
2023/01/08 10:47:19;;;;;;;;;;;;;;;11.61;100.00;99224.97;5075340;28;19933;-58
2023/01/08 10:49:45;;;;;;;;;;;;;;;11.68;100.00;99226.41;5075190;28;19937;-57
2023/01/08 10:52:24;;;;;;;;;;;;;;;11.83;100.00;99216.78;5087262;28;19936;-58
2023/01/08 10:54:49;;;;;;;;;;;;;;;12.21;100.00;99206.88;5093052;28;20006;-58
2023/01/08 10:57:22;;;;;;;;;;;;;;;12.56;100.00;99200.53;5094359;28;20353;-58
2023/01/08 10:59:48;;;;;;;;;;;;;;;12.62;100.00;99178.88;5091101;28;20030;-59
2023/01/08 11:02:42;;;;;;;;;;;;;;;12.73;100.00;99188.00;5094847;28;20727;-59
2023/01/08 11:05:10;;;;;;;;;;;;;;;12.64;99.19;99185.81;5080417;28;19959;-59
2023/01/08 11:07:35;;;;;;;;;;;;;;;12.67;99.31;99188.31;5091970;28;20459;-59
2023/01/08 11:10:01;;;;;;;;;;;;;;;12.55;99.70;99172.13;5094641;28;20017;-59
2023/01/08 11:12:30;;;;;;;;;;;;;;;12.49;98.98;99181.31;5090691;28;19940;-58
2023/01/08 11:14:56;;;;;;;;;;;;;;;12.57;99.51;99171.09;5094723;28;19972;-59
2023/01/08 11:17:24;;;;;;;;;;;;;;;12.53;98.48;99166.88;5090625;28;19978;-59
2023/01/08 11:19:50;;;;;;;;;;;;;;;12.53;98.54;99158.88;5094394;28;20054;-58
2023/01/08 11:22:19;;;;;;;;;;;;;;;12.54;98.15;99154.38;5095665;28;20009;-59
2023/01/08 11:24:45;;;;;;;;;;;;;;;12.52;98.18;99151.81;5092638;28;20314;-58
2023/01/08 11:27:14;;;;;;;;;;;;;;;12.51;98.36;99144.75;5094592;28;20380;-59
2023/01/08 11:29:46;;;;;;;;;;;;;;;12.67;97.53;99140.31;5082868;28;20441;-59
2023/01/08 11:32:14;;;;;;;;;;;;;;;12.73;96.09;99129.31;5073441;28;19929;-58
2023/01/08 11:34:48;;;;;;;;;;;;;;;12.71;95.28;99120.53;5074377;28;20285;-59
2023/01/08 11:37:18;;;;;;;;;;;;;;;12.70;95.76;99129.44;5074361;28;20020;-59
2023/01/08 11:39:44;;;;;;;;;;;;;;;12.75;96.29;99127.38;5078989;28;20026;-59
2023/01/08 11:42:09;;;;;;;;;;;;;;;12.72;96.40;99127.56;5085579;28;20418;-59
2023/01/08 11:44:34;;;;;;;;;;;;;;;12.79;96.40;99123.63;5071867;28;19955;-59
2023/01/08 11:47:12;;;;;;;;;;;;;;;12.91;95.10;99112.28;5072180;28;19928;-59
2023/01/08 11:49:57;;;;;;;;;;;;;;;13.08;95.26;99114.84;5091380;28;19935;-59
2023/01/08 11:52:22;;;;;;;;;;;;;;;13.05;92.90;99103.50;5093500;28;20032;-59
2023/01/08 11:55:11;;;;;;;;;;;;;;;13.03;92.54;99108.91;5083593;28;20032;-59
2023/01/08 11:57:43;;;;;;;;;;;;;;;12.98;93.05;99107.44;5073435;28;20056;-59
2023/01/08 12:00:24;;;;;;;;;;;;;;;13.00;93.68;99111.72;5075701;28;19957;-59
2023/01/08 12:02:55;;;;;;;;;;;;;;;12.95;93.46;99110.25;5076486;28;19935;-59
2023/01/08 12:05:47;;;;;;;;;;;;;;;12.82;93.31;99107.44;5075215;28;19957;-59
2023/01/08 12:08:12;;;;;;;;;;;;;;;12.83;94.27;99114.47;5041913;28;19926;-59
2023/01/08 12:10:44;;;;;;;;;;;;;;;12.78;94.09;99115.69;5075857;28;19939;-58
2023/01/08 12:13:18;;;;;;;;;;;;;;;12.77;94.84;99109.50;5073200;28;19932;-59
2023/01/08 12:15:52;;;;;;;;;;;;;;;12.66;94.11;99106.56;5081245;28;20014;-58
2023/01/08 12:18:24;;;;;;;;;;;;;;;12.70;94.42;99092.09;5093282;28;19928;-59
2023/01/08 12:20:49;;;;;;;;;;;;;;;12.68;94.17;99082.47;5079634;28;19937;-59
2023/01/08 12:23:26;;;;;;;;;;;;;;;12.76;94.64;99078.44;5078786;28;19935;-59
2023/01/08 12:25:57;;;;;;;;;;;;;;;12.77;93.44;99073.94;5090536;28;19974;-58
2023/01/08 12:28:25;;;;;;;;;;;;;;;12.88;93.59;99076.88;5092777;28;19946;-59
2023/01/08 12:30:53;;;;;;;;;;;;;;;12.72;92.76;99079.53;5089124;28;20066;-58
2023/01/08 12:33:29;;;;;;;;;;;;;;;12.79;93.56;99080.06;5079448;28;20010;-58
2023/01/08 12:35:57;;;;;;;;;;;;;;;12.72;92.49;99076.00;5093255;28;19930;-58
2023/01/08 12:38:22;;;;;;;;;;;;;;;12.77;92.48;99077.47;5078751;28;19935;-59
2023/01/08 12:40:52;;;;;;;;;;;;;;;12.72;92.48;99068.88;5094805;28;19956;-59
2023/01/08 12:43:20;;;;;;;;;;;;;;;12.82;92.55;99064.72;5082713;28;19943;-59
2023/01/08 12:45:47;;;;;;;;;;;;;;;12.78;92.87;99068.50;5074536;28;19990;-58